ESNK/KRF METAR and TAF weather

Enter ICAO airport designator
Station Type Date Time Source
ESNK METAR 2020/04/06 18:50 UTC NOAA

ESNK 061850Z AUTO 15007KT 9999 NCD 04/M00 Q1016


Station Type Date Time Source
ESNK Decoded METAR 2020/04/06 18:50 UTC NOAA

Kramfors Flygplats, Sweden (ESNK) 63-03N 017-46E 19M
Apr 06, 2020 - 02:50 PM EDT / 2020.04.06 1850 UTC
Wind: from the SSE (150 degrees) at 8 MPH (7 KT):0
Visibility: greater than 7 mile(s):0
Temperature: 39 F (4 C)
Dew Point: 32 F (0 C)
Relative Humidity: 75%
Pressure (altimeter): 30.00 in. Hg (1016 hPa)
ob: ESNK 061850Z AUTO 15007KT 9999 NCD 04/M00 Q1016
cycle: 19

Station Type Date Time Source
ESNK TAF 2017/12/15 06:00 UTC NOAA

TAF
AMD ESNK 150654Z 1506/1521 35005KT 6000 -SN BKN016
TEMPO 1506/1521 2000 SN SG VV009

Example: see airport list